Airfield :
LOGIN :

Register | Disclaimer

   EN    FR    IT 

 










Legend :    VFR   Marginal VFR   IFR   Intensive IFR   Very Intensive IFR
Visi :
Ceiling :
>= 8 km
>= 3000ft
5 to 8 km
1000 to 3000 ft
1500m to 5 km
500 to 1000 ft
800 to 1500m
200 to 500 ft
< 800m
< 200 ft
Symbols :   Thunderstorms  Fog  Heavy snow  Heavy precipitations  Wind > 20 kt
SIGMETs :     Misc.  Thunderstorms  Icing  Turbulence  Mountain Waves  Volcanic Ashes







- Airport Elevation : 640 ft
- IATA code : AOC


EDAC - Altenburg-Nobitz

CURRENT METAR :
  • 291250Z 32004KT 220V020 CAVOK 30/// Q1014

EXPIRED METARs :
  • 291220Z VRB03KT 340V340 CAVOK 30/// Q1014
  • 291150Z 34003KT 270V070 CAVOK 29/// Q1014
  • 291120Z 32005KT 290V020 CAVOK 28/// Q1015
  • 291050Z 31005KT 270V350 CAVOK 28/// Q1015
  • 291020Z 28005KT 240V330 CAVOK 28/// Q1015

TAF TAF EDAC
Valid from the 29 at 12:00 until the 29 at 21:00 UTC


291100Z 2912/2921 25006KT CAVOK
PROB30
TEMPO 2913/2918 27015G30KT -TSRA SCT040CB
BECMG 2915/2917 19004KT
No reported NOTAMs for that airfield.



MET'MAP, your aeronautical weather chart ! - Copyright ORBIFLY December 2007 - Disclaimer

ORBIFLY MET'MAP TEAM :

Programming & Development : Alexandra Zaïnal
Concept & Development : Baudouin d'Aumeries
Co-Development & Prog : Marc-Olivier Méhu
Technical & hardware support : Manuel Goepfert

Contact : metmap@orbifly.com




SOURCES & CREDITS :

   NOAA